Details for Ryanair at EGPH




Go Back


Latest METAR
Local Time

EGPH 250450Z VRB02KT 4700 BR OVC002 08/08 Q1025

25/05/2018, 06:04:13

Description
Results
Ryanair Logo
Number of Pilots based at EGPH
0 Pilots Based here
Number of Ryanair Flights Departed from EGPH
5 Flights Departed
Number of Ryanair Flights Arrived at EGPH
9 Flights Arrived
Number of Ryanair Schedules Departing from EGPH
92 Schedules
Number of Ryanair Schedules Arriving at EGPH
92 Schedules
Number of Ryanair Schedules Departing from EGPH availible today
31 Schedules Today
Number of Ryanair Schedules Arriving at EGPH availible today
31 Schedules Today
Average Landing Rate at EGPH
-242 fpm
Ryanair Average Landing Rate at EGPH
-205 fpm
Total Fuel Purchased at EGPH by Ryanair
23,351.85 kgs / 51,481.49 lbs

Pilots Based at EGPH


Pilot ID
Pilot Name
Pilot Rank
No. of Flights
No. of Flying Hours
There are no pilots assigned to this hub!   Will you be the first?
Content